createdAt,value
2022-07-30T00:04:16.941Z,18.30
2022-07-30T00:12:54.957Z,18.20
2022-07-30T00:15:31.640Z,18.20
2022-07-30T00:18:37.125Z,18.20
2022-07-30T00:24:10.214Z,18.10
2022-07-30T00:26:54.115Z,18.10
2022-07-30T00:29:30.984Z,18.10
2022-07-30T00:34:56.454Z,18.00
2022-07-30T00:37:44.934Z,18.00
2022-07-30T00:40:16.877Z,17.90
2022-07-30T00:48:49.440Z,17.80
2022-07-30T00:51:20.490Z,17.60
2022-07-30T00:53:54.569Z,17.50
2022-07-30T00:56:23.479Z,17.50
2022-07-30T00:58:57.299Z,17.40
2022-07-30T01:01:39.788Z,17.30
2022-07-30T01:04:15.433Z,17.20
2022-07-30T01:06:44.541Z,17.10
2022-07-30T01:09:24.419Z,17.10
2022-07-30T01:11:54.468Z,17.00
2022-07-30T01:14:40.636Z,17.00
2022-07-30T01:20:18.135Z,16.90
2022-07-30T01:23:04.404Z,16.90
2022-07-30T01:25:55.766Z,16.90
2022-07-30T01:28:28.811Z,16.90
2022-07-30T01:30:59.975Z,16.90
2022-07-30T01:33:43.854Z,16.90
2022-07-30T01:36:16.291Z,16.90
2022-07-30T01:38:47.648Z,16.90
2022-07-30T01:41:35.837Z,16.90
2022-07-30T01:44:05.323Z,16.90
2022-07-30T01:46:35.439Z,16.90
2022-07-30T01:49:07.117Z,16.90
2022-07-30T01:54:38.466Z,16.90
2022-07-30T01:57:10.752Z,16.80
2022-07-30T01:59:43.298Z,16.80
2022-07-30T02:02:14.366Z,16.70
2022-07-30T02:04:47.233Z,16.70
2022-07-30T02:07:21.059Z,16.60
2022-07-30T02:09:54.901Z,16.50
2022-07-30T02:12:28.744Z,16.40
2022-07-30T02:15:04.487Z,16.40
2022-07-30T02:17:45.229Z,16.30
2022-07-30T02:20:15.521Z,16.20
2022-07-30T02:22:47.123Z,16.20
2022-07-30T02:25:21.172Z,16.10
2022-07-30T02:27:55.775Z,16.00
2022-07-30T02:30:28.603Z,16.00
2022-07-30T02:33:01.165Z,16.00
2022-07-30T02:35:31.517Z,15.90
2022-07-30T02:38:02.992Z,15.90
2022-07-30T02:40:32.193Z,15.80
2022-07-30T02:43:02.811Z,15.80
2022-07-30T02:45:32.419Z,15.80
2022-07-30T02:48:06.571Z,15.70
2022-07-30T02:50:35.310Z,15.70
2022-07-30T02:53:06.166Z,15.60
2022-07-30T02:55:36.550Z,15.60
2022-07-30T02:58:07.948Z,15.60
2022-07-30T03:00:38.001Z,15.50
2022-07-30T03:03:07.453Z,15.50
2022-07-30T03:05:40.621Z,15.40
2022-07-30T03:08:10.348Z,15.40
2022-07-30T03:10:40.779Z,15.40
2022-07-30T03:13:13.127Z,15.30
2022-07-30T03:15:46.077Z,15.30
2022-07-30T03:18:16.730Z,15.20
2022-07-30T03:20:47.372Z,15.20
2022-07-30T03:23:19.147Z,15.20
2022-07-30T03:25:52.007Z,15.10
2022-07-30T03:28:25.892Z,15.10
2022-07-30T03:30:55.287Z,15.10
2022-07-30T03:33:24.548Z,15.10
2022-07-30T03:36:08.111Z,15.10
2022-07-30T03:38:38.695Z,15.10
2022-07-30T03:41:08.679Z,15.10
2022-07-30T03:43:40.465Z,15.10
2022-07-30T03:46:11.370Z,15.10
2022-07-30T03:48:43.772Z,15.10
2022-07-30T03:51:12.053Z,15.10
2022-07-30T03:53:54.611Z,15.10
2022-07-30T03:56:41.521Z,15.20
2022-07-30T04:02:07.481Z,15.20
2022-07-30T04:05:05.567Z,15.20
2022-07-30T04:07:34.527Z,15.30
2022-07-30T04:10:10.631Z,15.30
2022-07-30T04:13:13.916Z,15.30
2022-07-30T04:16:37.580Z,15.40
2022-07-30T04:19:04.708Z,15.40
2022-07-30T04:21:34.569Z,15.40
2022-07-30T04:24:04.475Z,15.40
2022-07-30T04:26:36.720Z,15.50
2022-07-30T04:29:08.616Z,15.50
2022-07-30T04:31:39.816Z,15.50
2022-07-30T04:34:29.451Z,15.50
2022-07-30T04:36:58.011Z,15.50
2022-07-30T04:39:26.693Z,15.50
2022-07-30T04:41:55.620Z,15.60
2022-07-30T04:44:39.105Z,15.60
2022-07-30T04:47:36.310Z,15.70
2022-07-30T04:50:30.575Z,15.70
2022-07-30T04:53:02.284Z,15.80
2022-07-30T04:55:36.747Z,15.90
2022-07-30T04:58:05.909Z,16.00
2022-07-30T05:00:40.946Z,16.10
2022-07-30T05:03:17.295Z,16.30
2022-07-30T05:05:57.314Z,16.40
2022-07-30T05:08:28.167Z,16.60
2022-07-30T05:10:57.317Z,16.70
2022-07-30T05:13:34.210Z,16.90
2022-07-30T05:16:05.222Z,17.10
2022-07-30T05:18:33.340Z,17.20
2022-07-30T05:21:02.988Z,17.40
2022-07-30T05:23:37.658Z,17.60
2022-07-30T05:26:21.574Z,17.80
2022-07-30T05:28:55.190Z,17.90
2022-07-30T05:31:51.607Z,18.10
2022-07-30T05:34:20.617Z,18.30
2022-07-30T05:36:51.111Z,18.40
2022-07-30T05:39:19.403Z,18.50
2022-07-30T05:41:53.518Z,18.60
2022-07-30T05:44:45.222Z,18.60
2022-07-30T05:47:13.492Z,18.60
2022-07-30T05:49:41.825Z,18.50
2022-07-30T05:52:16.721Z,18.50
2022-07-30T05:54:45.369Z,18.50
2022-07-30T05:57:25.217Z,18.50
2022-07-30T05:59:53.532Z,18.40
2022-07-30T06:02:44.686Z,18.40
2022-07-30T06:05:32.673Z,18.30
2022-07-30T06:08:04.770Z,18.30
2022-07-30T06:10:33.842Z,18.30
2022-07-30T06:13:01.991Z,18.20
2022-07-30T06:15:30.836Z,18.20
2022-07-30T06:18:01.640Z,18.20
2022-07-30T06:20:43.504Z,18.20
2022-07-30T06:23:33.198Z,18.20
2022-07-30T06:26:21.886Z,18.20
2022-07-30T06:28:50.055Z,18.20
2022-07-30T06:31:54.686Z,18.30
2022-07-30T06:34:23.131Z,18.30
2022-07-30T06:36:55.096Z,18.40
2022-07-30T06:39:57.336Z,18.60
2022-07-30T06:42:20.628Z,18.80
2022-07-30T06:45:08.914Z,19.10
2022-07-30T06:47:58.722Z,19.40
2022-07-30T06:50:28.061Z,19.60
2022-07-30T06:52:56.336Z,19.90
2022-07-30T06:55:26.719Z,20.20
2022-07-30T06:57:59.356Z,20.60
2022-07-30T07:00:47.421Z,20.90
2022-07-30T07:03:15.905Z,21.20
2022-07-30T07:05:44.055Z,21.70
2022-07-30T07:08:12.565Z,22.70
2022-07-30T07:10:47.637Z,23.90
2022-07-30T07:13:23.123Z,25.70
2022-07-30T07:15:51.394Z,27.50
2022-07-30T07:18:22.325Z,29.40
2022-07-30T07:20:55.362Z,31.20
2022-07-30T07:23:24.257Z,32.10
2022-07-30T07:25:57.224Z,33.40
2022-07-30T07:28:33.265Z,34.70
2022-07-30T07:31:03.439Z,35.40
2022-07-30T07:33:31.730Z,34.40
2022-07-30T07:35:59.817Z,34.00
2022-07-30T07:38:32.645Z,34.80
2022-07-30T07:41:02.754Z,36.40
2022-07-30T07:43:32.134Z,38.10
2022-07-30T07:46:01.735Z,39.10
2022-07-30T07:48:32.783Z,38.70
2022-07-30T07:51:47.385Z,37.70
2022-07-30T07:54:21.441Z,35.50
2022-07-30T07:56:52.982Z,33.80
2022-07-30T07:59:40.238Z,32.60
2022-07-30T08:02:14.513Z,31.80
2022-07-30T08:05:02.832Z,30.90
2022-07-30T08:07:49.417Z,30.20
2022-07-30T08:10:35.792Z,29.30
2022-07-30T08:13:05.286Z,28.90
2022-07-30T08:15:58.985Z,28.50
2022-07-30T08:18:53.138Z,28.20
2022-07-30T08:21:30.571Z,28.10
2022-07-30T08:23:58.718Z,28.20
2022-07-30T08:26:27.099Z,28.30
2022-07-30T08:28:56.546Z,28.60
2022-07-30T08:31:24.761Z,28.90
2022-07-30T08:33:52.753Z,29.00
2022-07-30T08:36:22.861Z,29.10
2022-07-30T08:38:54.581Z,29.10
2022-07-30T08:41:23.564Z,29.20
2022-07-30T08:43:52.188Z,29.30
2022-07-30T08:46:26.330Z,29.40
2022-07-30T08:49:11.409Z,29.50
2022-07-30T08:51:41.233Z,29.60
2022-07-30T08:54:40.726Z,29.60
2022-07-30T08:57:09.450Z,29.60
2022-07-30T08:59:59.866Z,29.60
2022-07-30T09:02:32.390Z,29.60
2022-07-30T09:05:05.829Z,30.10
2022-07-30T09:07:34.436Z,30.80
2022-07-30T09:10:04.269Z,31.80
2022-07-30T09:12:35.504Z,32.70
2022-07-30T09:15:07.184Z,33.60
2022-07-30T09:17:57.075Z,34.30
2022-07-30T09:20:29.407Z,35.20
2022-07-30T09:22:59.150Z,35.80
2022-07-30T09:26:02.327Z,36.30
2022-07-30T09:28:42.617Z,36.50
2022-07-30T09:31:17.185Z,36.60
2022-07-30T09:34:24.054Z,37.20
2022-07-30T09:37:02.891Z,37.60
2022-07-30T09:39:56.560Z,37.50
2022-07-30T09:43:04.310Z,37.00
2022-07-30T09:45:34.503Z,36.20
2022-07-30T09:48:03.831Z,35.70
2022-07-30T09:50:33.326Z,35.30
2022-07-30T09:53:08.794Z,35.10
2022-07-30T09:55:41.216Z,35.40
2022-07-30T09:58:12.976Z,35.90
2022-07-30T10:00:48.538Z,36.40
2022-07-30T10:03:42.563Z,36.70
2022-07-30T10:06:41.919Z,37.30
2022-07-30T10:09:29.212Z,38.50
2022-07-30T10:11:59.858Z,39.00
2022-07-30T10:14:34.625Z,38.90
2022-07-30T10:17:11.241Z,38.50
2022-07-30T10:19:42.144Z,38.10
2022-07-30T10:22:44.980Z,37.80
2022-07-30T10:25:27.809Z,37.40
2022-07-30T10:28:15.571Z,37.20
2022-07-30T10:30:45.239Z,37.10
2022-07-30T10:33:36.315Z,37.30
2022-07-30T10:36:02.762Z,37.80
2022-07-30T10:38:39.070Z,38.80
2022-07-30T10:41:16.848Z,41.00
2022-07-30T10:44:12.551Z,43.00
2022-07-30T10:46:47.579Z,44.10
2022-07-30T10:49:18.803Z,44.10
2022-07-30T10:51:49.028Z,43.80
2022-07-30T10:54:40.968Z,43.50
2022-07-30T10:57:15.068Z,43.00
2022-07-30T11:00:15.613Z,42.60
2022-07-30T11:03:40.212Z,41.70
2022-07-30T11:06:31.840Z,40.90
2022-07-30T11:08:59.849Z,40.00
2022-07-30T11:12:02.117Z,39.60
2022-07-30T11:14:58.397Z,39.30
2022-07-30T11:17:59.613Z,38.90
2022-07-30T11:20:28.647Z,38.70
2022-07-30T11:23:35.572Z,38.80
2022-07-30T11:26:04.432Z,39.00
2022-07-30T11:28:38.949Z,39.20
2022-07-30T11:31:36.918Z,39.90
2022-07-30T11:34:30.703Z,40.60
2022-07-30T11:37:19.173Z,41.10
2022-07-30T11:40:11.018Z,41.40
2022-07-30T11:42:41.475Z,41.50
2022-07-30T11:45:33.217Z,41.30
2022-07-30T11:48:01.933Z,41.10
2022-07-30T11:50:33.082Z,41.50
2022-07-30T11:53:02.781Z,42.30
2022-07-30T11:55:33.573Z,42.90
2022-07-30T11:58:04.008Z,44.30
2022-07-30T12:00:38.663Z,46.00
2022-07-30T12:03:14.337Z,47.90
2022-07-30T12:05:43.622Z,48.80
2022-07-30T12:08:33.283Z,48.90
2022-07-30T12:11:02.083Z,47.70
2022-07-30T12:13:43.622Z,45.60
2022-07-30T12:16:15.898Z,43.50
2022-07-30T12:18:44.235Z,41.30
2022-07-30T12:21:13.714Z,39.40
2022-07-30T12:23:43.586Z,37.90
2022-07-30T12:26:21.497Z,36.60
2022-07-30T12:28:50.056Z,35.50
2022-07-30T12:31:19.727Z,34.60
2022-07-30T12:33:47.900Z,33.80
2022-07-30T12:36:26.978Z,33.30
2022-07-30T12:38:56.654Z,32.80
2022-07-30T12:41:25.182Z,32.50
2022-07-30T12:43:56.522Z,32.30
2022-07-30T12:46:27.994Z,32.00
2022-07-30T12:48:57.886Z,31.80
2022-07-30T12:51:28.901Z,31.50
2022-07-30T12:53:58.561Z,31.20
2022-07-30T12:56:28.103Z,30.90
2022-07-30T12:58:57.329Z,30.60
2022-07-30T13:01:45.927Z,30.40
2022-07-30T13:04:15.282Z,30.20
2022-07-30T13:06:43.633Z,30.00
2022-07-30T13:09:20.963Z,30.00
2022-07-30T13:11:51.222Z,29.90
2022-07-30T13:14:19.313Z,29.80
2022-07-30T13:16:55.660Z,29.80
2022-07-30T13:19:24.021Z,29.80
2022-07-30T13:21:52.665Z,29.80
2022-07-30T13:24:20.850Z,29.80
2022-07-30T13:26:50.758Z,29.90
2022-07-30T13:29:19.418Z,30.00
2022-07-30T13:31:47.470Z,30.30
2022-07-30T13:34:16.951Z,30.50
2022-07-30T13:36:44.977Z,30.60
2022-07-30T13:39:13.200Z,30.50
2022-07-30T13:41:42.006Z,30.50
2022-07-30T13:44:10.089Z,30.60
2022-07-30T13:46:41.039Z,30.70
2022-07-30T13:49:10.680Z,30.70
2022-07-30T13:51:40.208Z,30.70
2022-07-30T13:54:08.388Z,30.60
2022-07-30T13:56:40.920Z,30.50
2022-07-30T13:59:09.287Z,30.30
2022-07-30T14:01:38.149Z,30.10
2022-07-30T14:04:06.815Z,29.90
2022-07-30T14:06:34.841Z,29.70
2022-07-30T14:09:04.656Z,29.70
2022-07-30T14:11:33.265Z,29.60
2022-07-30T14:14:01.402Z,29.50
2022-07-30T14:16:44.842Z,29.30
2022-07-30T14:19:24.378Z,29.10
2022-07-30T14:21:53.928Z,28.80
2022-07-30T14:24:23.761Z,28.60
2022-07-30T14:26:57.349Z,28.50
2022-07-30T14:29:27.308Z,28.30
2022-07-30T14:31:55.421Z,28.20
2022-07-30T14:34:23.923Z,28.00
2022-07-30T14:36:52.066Z,27.90
2022-07-30T14:39:21.046Z,27.80
2022-07-30T14:41:50.757Z,27.60
2022-07-30T14:44:24.589Z,27.50
2022-07-30T14:46:53.242Z,27.50
2022-07-30T14:49:22.570Z,27.60
2022-07-30T14:51:51.129Z,27.70
2022-07-30T14:54:19.378Z,28.00
2022-07-30T14:56:47.824Z,28.30
2022-07-30T14:59:17.828Z,28.80
2022-07-30T15:01:47.949Z,29.30
2022-07-30T15:04:16.183Z,29.70
2022-07-30T15:06:44.258Z,30.00
2022-07-30T15:09:12.520Z,30.10
2022-07-30T15:12:18.017Z,30.10
2022-07-30T15:14:30.519Z,30.10
2022-07-30T15:17:03.952Z,29.80
2022-07-30T15:19:32.964Z,29.50
2022-07-30T15:22:02.921Z,29.20
2022-07-30T15:24:31.923Z,28.90
2022-07-30T15:27:00.433Z,28.60
2022-07-30T15:29:30.823Z,28.40
2022-07-30T15:32:01.018Z,28.30
2022-07-30T15:34:33.990Z,28.20
2022-07-30T15:37:03.084Z,28.10
2022-07-30T15:39:33.111Z,27.90
2022-07-30T15:42:02.226Z,27.80
2022-07-30T15:44:32.323Z,27.50
2022-07-30T15:47:00.948Z,27.30
2022-07-30T15:49:29.946Z,27.10
2022-07-30T15:52:00.115Z,26.80
2022-07-30T15:54:28.861Z,26.70
2022-07-30T15:57:01.191Z,26.70
2022-07-30T15:59:31.708Z,26.60
2022-07-30T16:02:00.439Z,26.70
2022-07-30T16:04:31.861Z,26.70
2022-07-30T16:07:01.095Z,26.80
2022-07-30T16:09:29.095Z,26.80
2022-07-30T16:11:58.163Z,26.90
2022-07-30T16:14:26.584Z,27.00
2022-07-30T16:16:56.396Z,27.20
2022-07-30T16:19:24.572Z,27.30
2022-07-30T16:21:52.782Z,27.40
2022-07-30T16:24:21.222Z,27.40
2022-07-30T16:26:50.622Z,27.30
2022-07-30T16:29:19.187Z,27.20
2022-07-30T16:31:47.750Z,27.10
2022-07-30T16:34:23.027Z,27.00
2022-07-30T16:36:55.135Z,26.80
2022-07-30T16:39:23.168Z,26.70
2022-07-30T16:41:51.539Z,26.50
2022-07-30T16:44:19.617Z,26.40
2022-07-30T16:46:48.443Z,26.20
2022-07-30T16:49:17.902Z,26.00
2022-07-30T16:51:46.427Z,25.90
2022-07-30T16:54:14.723Z,25.80
2022-07-30T16:56:42.787Z,25.60
2022-07-30T16:59:13.873Z,25.50
2022-07-30T17:01:42.523Z,25.50
2022-07-30T17:04:10.536Z,25.40
2022-07-30T17:06:41.057Z,25.20
2022-07-30T17:09:09.212Z,25.00
2022-07-30T17:11:47.124Z,24.80
2022-07-30T17:14:22.108Z,24.60
2022-07-30T17:16:50.800Z,24.40
2022-07-30T17:19:18.914Z,24.20
2022-07-30T17:21:48.375Z,24.00
2022-07-30T17:24:16.573Z,23.90
2022-07-30T17:26:45.160Z,23.70
2022-07-30T17:29:15.237Z,23.60
2022-07-30T17:31:44.427Z,23.50
2022-07-30T17:34:14.918Z,23.40
2022-07-30T17:36:52.037Z,23.30
2022-07-30T17:40:27.715Z,23.20
2022-07-30T17:42:11.204Z,23.10
2022-07-30T17:44:40.261Z,23.00
2022-07-30T17:47:14.646Z,22.80
2022-07-30T17:49:44.684Z,22.60
2022-07-30T17:52:12.838Z,22.50
2022-07-30T17:54:42.246Z,22.30
2022-07-30T17:57:10.464Z,22.20
2022-07-30T17:59:38.909Z,22.00
2022-07-30T18:02:07.245Z,21.80
2022-07-30T18:04:35.735Z,21.70
2022-07-30T18:07:04.188Z,21.50
2022-07-30T18:09:38.862Z,21.40
2022-07-30T18:12:09.567Z,21.20
2022-07-30T18:14:38.603Z,21.10
2022-07-30T18:17:10.037Z,21.10
2022-07-30T18:19:40.898Z,21.00
2022-07-30T18:22:09.304Z,21.10
2022-07-30T18:24:40.056Z,21.00
2022-07-30T18:27:11.535Z,21.00
2022-07-30T18:29:39.567Z,21.10
2022-07-30T18:32:08.650Z,21.10
2022-07-30T18:34:36.674Z,21.10
2022-07-30T18:37:04.750Z,21.00
2022-07-30T18:39:32.845Z,21.00
2022-07-30T18:42:02.122Z,21.00
2022-07-30T18:44:32.326Z,21.00
2022-07-30T18:47:00.485Z,21.00
2022-07-30T18:49:37.607Z,21.00
2022-07-30T18:52:07.776Z,20.90
2022-07-30T18:54:36.732Z,20.90
2022-07-30T18:57:05.703Z,20.80
2022-07-30T18:59:35.382Z,20.70
2022-07-30T19:02:04.645Z,20.70
2022-07-30T19:04:33.244Z,20.50
2022-07-30T19:07:01.389Z,20.40
2022-07-30T19:09:29.378Z,20.30
2022-07-30T19:11:57.420Z,20.20
2022-07-30T19:14:25.570Z,20.10
2022-07-30T19:16:59.219Z,20.00
2022-07-30T19:19:27.998Z,19.80
2022-07-30T19:21:56.199Z,19.70
2022-07-30T19:24:24.629Z,19.60
2022-07-30T19:26:56.197Z,19.50
2022-07-30T19:29:24.574Z,19.40
2022-07-30T19:31:53.923Z,19.40
2022-07-30T19:34:21.948Z,19.30
2022-07-30T19:36:50.154Z,19.20
2022-07-30T19:39:21.299Z,19.10
2022-07-30T19:41:50.979Z,19.00
2022-07-30T19:44:19.530Z,18.90
2022-07-30T19:46:48.672Z,18.80
2022-07-30T19:49:20.906Z,18.70
2022-07-30T19:52:10.950Z,18.60
2022-07-30T19:54:38.360Z,18.50
2022-07-30T19:57:06.463Z,18.40
2022-07-30T19:59:55.802Z,18.30
2022-07-30T20:02:22.705Z,18.20
2022-07-30T20:04:52.160Z,18.20
2022-07-30T20:07:20.262Z,18.10
2022-07-30T20:09:49.198Z,18.00
2022-07-30T20:12:17.321Z,18.00
2022-07-30T20:14:45.403Z,17.90
2022-07-30T20:17:13.718Z,17.90
2022-07-30T20:19:47.990Z,17.90
2022-07-30T20:22:18.112Z,17.90
2022-07-30T20:24:48.542Z,17.90
2022-07-30T20:27:37.216Z,17.80
2022-07-30T20:30:05.855Z,17.80
2022-07-30T20:32:33.909Z,17.80
2022-07-30T20:35:01.944Z,17.80
2022-07-30T20:37:31.419Z,17.80
2022-07-30T20:39:59.629Z,17.80
2022-07-30T20:42:28.566Z,17.80
2022-07-30T20:44:58.249Z,17.80
2022-07-30T20:47:38.565Z,17.70
2022-07-30T20:50:09.576Z,17.70
2022-07-30T20:52:40.598Z,17.70
2022-07-30T20:55:09.982Z,17.70
2022-07-30T20:57:57.285Z,17.60
2022-07-30T21:00:31.014Z,17.60
2022-07-30T21:02:58.972Z,17.50
2022-07-30T21:05:31.486Z,17.40
2022-07-30T21:08:01.424Z,17.40
2022-07-30T21:10:29.538Z,17.40
2022-07-30T21:13:02.868Z,17.30
2022-07-30T21:15:36.229Z,17.20
2022-07-30T21:18:14.148Z,17.20
2022-07-30T21:20:42.203Z,17.10
2022-07-30T21:23:22.316Z,17.00
2022-07-30T21:26:01.073Z,17.00
2022-07-30T21:28:35.624Z,17.00
2022-07-30T21:31:07.192Z,16.90
2022-07-30T21:33:36.692Z,16.90
2022-07-30T21:36:10.281Z,16.80
2022-07-30T21:38:41.774Z,16.80
2022-07-30T21:41:14.422Z,16.80
2022-07-30T21:43:44.424Z,16.80
2022-07-30T21:46:13.036Z,16.80
2022-07-30T21:48:43.312Z,16.80
2022-07-30T21:51:12.199Z,16.80
2022-07-30T21:53:46.035Z,16.80
2022-07-30T21:56:15.953Z,16.80
2022-07-30T21:58:45.281Z,16.90
2022-07-30T22:01:17.884Z,16.90
2022-07-30T22:04:02.872Z,16.90
2022-07-30T22:06:35.404Z,16.90
2022-07-30T22:09:19.190Z,17.00
2022-07-30T22:11:54.992Z,17.00
2022-07-30T22:14:25.558Z,17.00
2022-07-30T22:16:54.550Z,17.10
2022-07-30T22:19:22.709Z,17.10
2022-07-30T22:21:51.757Z,17.20
2022-07-30T22:24:28.644Z,17.20
2022-07-30T22:27:01.285Z,17.20
2022-07-30T22:29:33.916Z,17.20
2022-07-30T22:32:04.590Z,17.30
2022-07-30T22:34:33.399Z,17.30
2022-07-30T22:37:01.946Z,17.20
2022-07-30T22:39:50.135Z,17.30
2022-07-30T22:42:24.920Z,17.30
2022-07-30T22:44:55.971Z,17.30
2022-07-30T22:47:53.883Z,17.30
2022-07-30T22:50:14.905Z,17.30
2022-07-30T22:52:53.155Z,17.30
2022-07-30T22:55:30.104Z,17.20
2022-07-30T22:58:02.648Z,17.20
2022-07-30T23:00:31.339Z,17.20
2022-07-30T23:03:00.811Z,17.20
2022-07-30T23:05:30.876Z,17.20
2022-07-30T23:08:03.515Z,17.20
2022-07-30T23:10:34.238Z,17.20
2022-07-30T23:13:02.838Z,17.20
2022-07-30T23:15:32.401Z,17.20
2022-07-30T23:18:01.084Z,17.10
2022-07-30T23:20:29.802Z,17.10
2022-07-30T23:22:59.240Z,17.10
2022-07-30T23:25:34.633Z,17.10
2022-07-30T23:28:09.344Z,17.10
2022-07-30T23:30:38.020Z,17.10
2022-07-30T23:33:06.538Z,17.10
2022-07-30T23:35:34.777Z,17.10
2022-07-30T23:38:02.864Z,17.10
2022-07-30T23:40:31.424Z,17.00
2022-07-30T23:42:59.441Z,17.10
2022-07-30T23:45:29.066Z,17.00
2022-07-30T23:48:02.615Z,17.00
2022-07-30T23:50:32.015Z,17.00
2022-07-30T23:53:00.488Z,17.00
2022-07-30T23:55:28.661Z,17.00
2022-07-30T23:57:57.373Z,17.00
